[source: ADDS]
METAR
EDMA 160650Z 34005KT 9999 FEW016 03/02 Q1028 RMK ATIS YAN =
TAF
TAF EDMA 160500Z 1606/1615 06005KT 8000 SCT015 BKN030 BECMG 1608/1610 03011KT =
SR / SS: 04:25 / 18:11 UTC (Referenz EDMA 2014-04-16)
Start Bilder

PostHeaderIcon Bilder